Latest Weather Observations for Salmon Gums RS

IDW60801

Issued at 5:42 pm WST Tuesday 31 March 2015 (issued every 30 minutes, with the page automatically refreshed every 10 minutes)

About weather observations | Map of weather stations | Latest weather observations for WA | Other Formats
Station Details ID: 012071 Name: SALMON GUMS RES.STN. Lat: -32.99 Lon: 121.62 Height: 249.0 m
Data from the previous 72 hours. | See also: Recent months at Salmon Gums RS
Date/Time
WST
Temp
°C
App
Temp
°C
Dew
Point
Rel
Hum
%
Delta-T
°C
Wind Press
QNH
hPa
Press
MSL
hPa
Rain
since 9 am
mm
Dir
 
Spd
km/h
Gust
km/h
Spd
kts
Gust
kts
31/05:30pm 18.9 19.0 15.4 80 2.1 S 9 13 5 7 - - 20.4
31/05:00pm 19.2 19.1 15.9 81 2.0 S 11 15 6 8 - - 20.4
31/04:30pm 19.1 18.0 15.4 79 2.2 SSW 15 20 8 11 - - 20.4
31/04:00pm 19.5 18.8 16.5 83 1.8 SSW 15 19 8 10 - - 20.4
31/03:30pm 19.2 18.4 15.1 77 2.4 S 13 19 7 10 - - 20.4
31/03:00pm 19.5 18.0 15.2 76 2.6 S 17 30 9 16 - - 20.4
31/02:30pm 18.8 16.9 15.7 82 1.9 S 20 26 11 14 - - 20.4
31/02:00pm 18.8 16.6 16.0 84 1.7 S 22 30 12 16 - - 20.4
31/01:30pm 17.9 16.7 16.2 90 1.0 S 17 30 9 16 - - 20.4
31/01:00pm 17.3 15.5 16.0 92 0.8 S 20 28 11 15 - - 20.4
31/12:30pm 17.1 15.9 16.0 93 0.7 SSW 17 24 9 13 - - 20.2
31/12:00pm 17.4 15.9 16.3 93 0.7 S 19 26 10 14 - - 19.2
31/11:30am 17.6 15.3 16.6 94 0.6 SSW 24 32 13 17 - - 19.0
31/11:00am 17.1 15.0 16.1 94 0.6 S 22 33 12 18 - - 18.8
31/10:30am 16.8 14.6 16.0 95 0.5 S 22 32 12 17 - - 18.0
31/10:00am 17.0 15.4 16.0 94 0.6 SSW 19 43 10 23 - - 11.0
31/09:30am 17.8 19.0 16.8 94 0.6 ESE 6 9 3 5 - - 4.0
31/09:00am 17.6 17.7 16.6 94 0.6 ENE 11 20 6 11 - - 31.6
31/08:30am 17.4 17.1 16.4 94 0.6 E 13 17 7 9 - - 27.6
31/08:00am 17.5 17.6 16.5 94 0.6 E 11 15 6 8 - - 23.4
31/07:30am 17.1 17.4 16.1 94 0.6 E 9 11 5 6 - - 19.6
31/07:00am 17.3 17.7 16.2 93 0.7 ESE 9 15 5 8 - - 15.6
31/06:30am 17.5 18.3 16.4 93 0.7 ESE 7 9 4 5 - - 13.2
31/06:00am 17.5 18.5 16.4 93 0.7 SSE 6 7 3 4 - - 10.8
31/05:30am 17.7 18.7 16.4 92 0.8 S 6 9 3 5 - - 8.8
31/05:00am 18.0 19.1 16.7 92 0.8 SSW 6 9 3 5 - - 6.8
31/04:30am 18.0 19.1 16.7 92 0.8 SW 6 9 3 5 - - 5.4
31/04:00am 18.2 19.4 16.9 92 0.8 W 6 9 3 5 - - 4.2
31/03:30am 18.4 19.6 16.9 91 0.9 WSW 6 11 3 6 - - 3.2
31/03:00am 18.6 19.6 16.9 90 1.0 WSW 7 9 4 5 - - 3.0
31/02:30am 18.9 19.6 17.0 89 1.2 WNW 9 15 5 8 - - 1.8
31/02:00am 19.6 19.0 16.6 83 1.8 WNW 15 22 8 12 - - 0.4
31/01:30am 20.7 19.0 16.3 76 2.7 NW 20 32 11 17 - - 0.2
31/01:00am 21.5 20.3 16.2 72 3.2 NW 17 30 9 16 - - 0.2
31/12:30am 22.0 19.4 15.8 68 3.8 NW 24 41 13 22 - - 0.2
31/12:00am 24.7 22.1 14.8 54 6.0 NW 22 33 12 18 - - 0.0
 
Date/Time
WST
Temp
°C
App
Temp
°C
Dew
Point
Rel
Hum
%
Delta-T
°C
Wind Press
QNH
hPa
Press
MSL
hPa
Rain
since 9 am
mm
Dir
 
Spd
km/h
Gust
km/h
Spd
kts
Gust
kts
30/11:30pm 25.6 23.8 14.4 50 6.7 NW 17 33 9 18 - - 0.0
30/11:00pm 26.0 23.3 11.7 41 8.2 NW 17 24 9 13 - - 0.0
30/10:30pm 26.1 22.7 7.7 31 9.9 NNW 15 24 8 13 - - 0.0
30/10:00pm 26.5 23.0 7.0 29 10.4 N 15 22 8 12 - - 0.0
30/09:30pm 25.3 23.3 7.0 31 9.7 NNE 7 11 4 6 - - 0.0
30/09:00pm 25.1 23.0 6.8 31 9.7 NNE 7 11 4 6 - - 0.0
30/08:30pm 25.4 23.3 6.6 30 9.9 NNE 7 9 4 5 - - 0.0
30/08:00pm 25.0 23.0 6.2 30 9.8 NE 6 7 3 4 - - 0.0
30/07:30pm 25.2 23.2 6.4 30 9.9 NE 6 7 3 4 - - 0.0
30/07:00pm 25.8 23.8 6.4 29 10.2 NE 6 7 3 4 - - 0.0
30/06:30pm 26.8 24.6 6.2 27 10.9 NE 7 9 4 5 - - 0.0
30/06:00pm 28.2 25.6 6.3 25 11.7 NE 9 15 5 8 - - 0.0
30/05:30pm 29.3 26.9 7.2 25 12.0 NE 9 13 5 7 - - 0.0
30/05:00pm 30.1 27.9 7.9 25 12.3 NE 9 13 5 7 - - 0.0
30/04:30pm 30.7 26.8 7.2 23 12.9 N 17 24 9 13 - - 0.0
30/04:00pm 31.1 28.0 5.5 20 13.7 N 11 19 6 10 - - 0.0
30/03:30pm 31.6 28.5 7.3 22 13.4 N 13 24 7 13 - - 0.0
30/03:00pm 31.2 27.4 7.6 23 13.0 NNE 17 28 9 15 - - 0.0
30/02:30pm 30.6 27.1 7.1 23 12.8 NNE 15 22 8 12 - - 0.0
30/02:00pm 31.1 28.1 7.5 23 13.0 N 13 22 7 12 - - 0.0
30/01:30pm 31.9 28.5 7.5 22 13.5 N 15 22 8 12 - - 0.0
30/01:00pm 30.7 27.2 7.2 23 12.9 N 15 26 8 14 - - 0.0
30/12:30pm 30.4 27.2 7.0 23 12.8 N 13 20 7 11 - - 0.0
30/12:00pm 29.9 26.3 8.3 26 12.0 N 17 26 9 14 - - 0.0
30/11:30am 29.0 25.2 9.2 29 11.1 N 19 35 10 19 - - 0.0
30/11:00am 28.5 24.7 9.2 30 10.8 NNE 19 28 10 15 - - 0.0
30/10:30am 28.1 24.9 9.9 32 10.3 N 17 24 9 13 - - 0.0
30/10:00am 27.2 23.5 10.0 34 9.7 NNE 20 28 11 15 - - 0.0
30/09:30am 25.9 21.4 10.1 37 8.9 N 24 35 13 19 - - 0.0
30/09:00am 24.7 20.0 9.4 38 8.4 N 24 39 13 21 - - 0.0
30/08:30am 23.6 19.4 8.1 37 8.3 N 20 32 11 17 - - 0.0
30/08:00am 22.1 18.4 7.9 40 7.5 N 17 24 9 13 - - 0.0
30/07:30am 20.2 16.5 7.9 45 6.4 N 17 30 9 16 - - 0.0
30/07:00am 18.9 15.7 8.3 50 5.5 N 15 22 8 12 - - 0.0
30/06:30am 14.4 12.7 7.5 63 3.4 NE 6 9 3 5 - - 0.0
30/06:00am 12.0 10.1 6.5 69 2.6 NE 6 7 3 4 - - 0.0
30/05:30am 12.1 10.0 5.7 65 3.0 NE 6 6 3 3 - - 0.0
30/05:00am 14.1 12.0 6.7 61 3.6 NE 7 13 4 7 - - 0.0
30/04:30am 13.8 11.8 6.9 63 3.4 NE 7 9 4 5 - - 0.0
30/04:00am 14.4 12.4 7.0 61 3.7 NE 7 9 4 5 - - 0.0
30/03:30am 14.5 12.2 7.5 63 3.5 NE 9 13 5 7 - - 0.0
30/03:00am 14.3 12.6 8.5 68 3.0 NE 7 9 4 5 - - 0.0
30/02:30am 14.0 12.7 9.2 73 2.5 NE 6 7 3 4 - - 0.0
30/02:00am 14.5 13.3 9.7 73 2.5 NE 6 7 3 4 - - 0.0
30/01:30am 15.0 13.4 10.2 73 2.5 NE 9 11 5 6 - - 0.0
30/01:00am 15.5 14.0 10.7 73 2.6 NE 9 13 5 7 - - 0.0
30/12:30am 16.0 14.7 11.2 73 2.6 NE 9 13 5 7 - - 0.0
30/12:00am 17.0 15.4 11.7 71 2.9 NE 11 15 6 8 - - 0.0
 
Date/Time
WST
Temp
°C
App
Temp
°C
Dew
Point
Rel
Hum
%
Delta-T
°C
Wind Press
QNH
hPa
Press
MSL
hPa
Rain
since 9 am
mm
Dir
 
Spd
km/h
Gust
km/h
Spd
kts
Gust
kts
29/11:30pm 17.8 16.3 12.0 69 3.2 NE 11 17 6 9 - - 0.0
29/11:00pm 17.9 16.4 11.9 68 3.3 ENE 11 15 6 8 - - 0.0
29/10:30pm 18.0 16.5 11.8 67 3.4 ENE 11 15 6 8 - - 0.0
29/10:00pm 18.5 16.9 11.6 64 3.8 E 11 15 6 8 - - 0.0
29/09:30pm 18.9 17.3 11.5 62 4.1 E 11 19 6 10 - - 0.0
29/09:00pm 19.4 17.0 11.4 60 4.4 E 15 19 8 10 - - 0.0
29/08:30pm 20.0 17.5 11.2 57 4.9 E 15 20 8 11 - - 0.0
29/08:00pm 21.0 17.9 11.6 55 5.3 E 19 26 10 14 - - 0.0
29/07:30pm 21.3 19.1 10.8 51 5.8 ESE 13 20 7 11 - - 0.0
29/07:00pm 20.0 18.1 6.7 42 6.8 E 6 6 3 3 - - 0.0
29/06:30pm 22.4 20.4 6.2 35 8.3 E 6 7 3 4 - - 0.0
29/06:00pm 24.2 22.1 6.5 32 9.2 E 7 9 4 5 - - 0.0
29/05:30pm 26.1 23.7 7.2 30 10.1 E 9 11 5 6 - - 0.0
29/05:00pm 26.9 24.3 7.9 30 10.3 E 11 15 6 8 - - 0.0
29/04:30pm 27.3 24.4 8.2 30 10.5 ESE 13 20 7 11 - - 0.0
29/04:00pm 27.4 25.7 8.3 30 10.5 ESE 7 17 4 9 - - 0.0
29/03:30pm 27.6 24.8 8.5 30 10.5 ESE 13 19 7 10 - - 0.0
29/03:00pm 27.8 26.2 8.1 29 10.8 S 6 11 3 6 - - 0.0
29/02:30pm 27.3 25.2 8.2 30 10.5 SE 9 17 5 9 - - 0.0
29/02:00pm 27.5 25.7 7.9 29 10.7 S 7 13 4 7 - - 0.0
29/01:30pm 26.5 24.9 8.0 31 10.0 E 6 9 3 5 - - 0.0
29/01:00pm 26.7 25.6 8.6 32 9.9 SSE 4 9 2 5 - - 0.0
29/12:30pm 26.0 24.1 8.9 34 9.4 NE 9 17 5 9 - - 0.0
29/12:00pm 25.6 23.9 9.8 37 8.8 ENE 9 15 5 8 - - 0.0
29/11:30am 25.0 23.8 9.7 38 8.5 WSW 6 13 3 7 - - 0.0
29/11:00am 23.7 22.4 10.0 42 7.6 NNW 7 11 4 6 - - 0.0
29/10:30am 21.8 20.5 11.2 51 5.9 E 9 15 5 8 - - 0.0
29/10:00am 20.5 19.2 11.4 56 5.1 ENE 9 13 5 7 - - 0.0
29/09:30am 18.8 18.8 13.6 72 3.0 E 6 7 3 4 - - 0.0
29/09:00am 16.7 17.0 15.1 90 0.9 E 7 9 4 5 - - 0.0
29/08:30am 14.6 14.7 13.8 95 0.5 E 6 9 3 5 - - 0.0
29/08:00am 13.3 13.3 12.5 95 0.4 ENE 4 6 2 3 - - 0.0
29/07:30am 12.1 12.6 11.5 96 0.3 CALM 0 0 0 0 - - 0.0
29/07:00am 9.4 9.1 8.8 96 0.3 CALM 0 0 0 0 - - 0.0
29/06:30am 7.9 7.2 7.1 95 0.4 CALM 0 0 0 0 - - 0.0
29/06:00am 7.4 6.3 6.7 95 0.3 NNW 2 4 1 2 - - 0.0
29/05:30am 7.7 6.2 6.8 94 0.4 NNW 4 6 2 3 - - 0.0
29/05:00am 8.0 6.6 7.1 94 0.4 NNW 4 4 2 2 - - 0.0
29/04:30am 8.5 6.8 7.6 94 0.4 NNW 6 7 3 4 - - 0.0
29/04:00am 8.5 7.2 7.6 94 0.4 E 4 4 2 2 - - 0.0
29/03:30am 8.8 8.3 7.9 94 0.4 CALM 0 0 0 0 - - 0.0
29/03:00am 8.5 7.9 7.4 93 0.5 CALM 0 0 0 0 - - 0.0
29/02:30am 8.0 7.3 6.9 93 0.5 CALM 0 0 0 0 - - 0.0
29/02:00am 8.0 7.3 6.8 92 0.6 CALM 0 0 0 0 - - 0.0
29/01:30am 8.4 7.7 6.9 90 0.7 CALM 0 0 0 0 - - 0.0
29/01:00am 9.0 8.4 7.3 89 0.8 CALM 0 0 0 0 - - 0.0
29/12:30am 9.1 8.5 7.2 88 0.9 CALM 0 0 0 0 - - 0.0
29/12:00am 9.8 9.3 7.9 88 0.9 CALM 0 0 0 0 - - 0.0
 
Date/Time
WST
Temp
°C
App
Temp
°C
Dew
Point
Rel
Hum
%
Delta-T
°C
Wind Press
QNH
hPa
Press
MSL
hPa
Rain
since 9 am
mm
Dir
 
Spd
km/h
Gust
km/h
Spd
kts
Gust
kts
28/11:30pm 10.2 9.8 8.3 88 0.9 CALM 0 0 0 0 - - 0.0
28/11:00pm 11.4 10.9 9.5 88 1.0 E 2 2 1 1 - - 0.0
28/10:30pm 11.9 11.2 10.0 88 1.0 E 4 4 2 2 - - 0.0
28/10:00pm 11.9 10.8 9.8 87 1.1 E 6 6 3 3 - - 0.0
28/09:30pm 12.7 12.4 10.1 84 1.4 SE 2 4 1 2 - - 0.0
28/09:00pm 13.9 13.1 10.9 82 1.6 SE 6 6 3 3 - - 0.0
28/08:30pm 15.4 14.9 12.0 80 1.9 SSE 6 7 3 4 - - 0.0
28/08:00pm 16.2 15.7 12.2 77 2.2 SSE 6 7 3 4 - - 0.0
28/07:30pm 17.1 16.5 12.4 74 2.6 SSE 7 9 4 5 - - 0.0
28/07:00pm 18.0 16.7 12.5 70 3.1 S 11 15 6 8 - - 0.0
28/06:30pm 18.7 16.9 12.0 65 3.7 S 13 20 7 11 - - 0.0
28/06:00pm 19.7 16.6 12.2 62 4.2 S 20 26 11 14 - - 0.0

Other Formats:

Comma delimited format used in spreadsheet applications
http://www.bom.gov.au/fwo/IDW60801/IDW60801.95639.axf

JavaScript Object Notation format (JSON) in row-major order
http://www.bom.gov.au/fwo/IDW60801/IDW60801.95639.json